Startpagina
METAR-TAF:

METAR-TAF

Vliegvelden :

Vliegveld de Kooy

Den Helder, Nederland

breedte: 52-55N, lengte: 004-47E, hoogte: 0 m

Actueel weer

Dit bericht is 42 minuten geleden gemaakt, om 07:25 UTC
Wind 5 kt uit het zuiden, variërend tussen het zuidoosten en het zuidzuidwesten
Temperatuur 18°C
Vochtigheid 83%
Druk 1023 hPa
Zicht 10 km of meer
Geheel bewolkt op 21000 ft

METAR: EHKD 180725Z AUTO 17005KT 140V210 9999 OVC210 18/15 Q1023 BLU NOSIG

Tijdstip: 10:07 (08:07 UTC)

Verwachting

Dit bericht is 3 uur en het 32 minuten geleden gemaakt, om 04:35 UTC
Verwachting geldig van 18 om 05 UTC tot 18 om 17 UTC
Wind 2 kt uit variabele richting
Zicht 10 km of meer
geen wolken onder 1500 m en geen cumulonimbus
Wijzigt naar
van 18 om 10 UTC tot 18 om 12 UTC
Wind 4 kt uit het westen

TAF: EHKD 180435Z 1805/1817 VRB02KT CAVOK BECMG 1810/1812 27004KT

Waarnemingen en weersverwachtingen van meer dan 4000 vliegvelden (METAR en TAF).

De beschikbare stations zijn de gele en rode punten op de kaart.

Ga met uw muis naar het station om de naam te zien.

Klik dan om waarnemingen en weersverwachtingen te zien.

kaart wijzigen: klik op de groene knoppen met een zwart kruis om in te zoomen, op de groene knop met een streepje om uit te zoomen of op de groene pijlen voor aangrenzende kaarten.


METAR-TAF: